Time;durP1;ratioP1;P1;durP2;ratioP2;P2;SDS_P1;SDS_P2;PMS_P1;PMS_P2;Temp;Humidity;BMP_temperature;BMP_pressure;BME280_temperature;BME280_humidity;BME280_pressure;Samples;Min_cycle;Max_cycle;Signal;HPM_P1;HPM_P2
2021/10/23 00:00:32;;;;;;;;;;;;;;;-144.99;100.00;61100.13;5072270;28;20037;-76
2021/10/23 00:03:00;;;;;;;;;;;;;;;-144.99;97.13;52627.47;5067958;28;20191;-73
2021/10/23 00:05:28;;;;;;;;;;;;;;;-144.99;98.54;52576.50;5061068;28;20000;-75
2021/10/23 00:08:36;;;;;;;;;;;;;;;-144.99;98.54;52576.50;5054396;28;20000;-74
2021/10/23 00:11:31;;;;;;;;;;;;;;;-144.99;98.54;52576.50;5080146;28;19955;-76
2021/10/23 00:13:57;;;;;;;;;;;;;;;-144.99;98.33;52578.53;5060749;28;20054;-75
2021/10/23 00:17:23;;;;;;;;;;;;;;;-144.99;100.00;61100.13;5057795;28;20023;-75
2021/10/23 00:19:49;;;;;;;;;;;;;;;-144.99;98.46;52566.31;5067884;28;19997;-74
2021/10/23 00:22:17;;;;;;;;;;;;;;;-144.99;98.56;52619.31;5066756;28;19984;-75
2021/10/23 00:24:43;;;;;;;;;;;;;;;-144.99;99.24;52594.84;5076511;28;19991;-75
2021/10/23 00:27:10;;;;;;;;;;;;;;;-144.99;99.64;52556.13;5077510;28;19993;-75
2021/10/23 00:29:36;;;;;;;;;;;;;;;-144.99;99.58;52619.31;5087345;28;20492;-76
2021/10/23 00:32:03;;;;;;;;;;;;;;;-144.99;99.80;52590.78;5087595;28;20450;-77
2021/10/23 00:35:27;;;;;;;;;;;;;;;-144.99;100.00;61100.13;5085826;28;19980;-75
2021/10/23 00:37:55;;;;;;;;;;;;;;;-144.99;100.00;52582.63;5079769;28;20175;-74
2021/10/23 00:40:21;;;;;;;;;;;;;;;-144.99;100.00;52611.16;5076519;28;19983;-75
2021/10/23 00:42:48;;;;;;;;;;;;;;;-144.99;100.00;52592.81;5079997;28;19980;-75
2021/10/23 00:45:14;;;;;;;;;;;;;;;-144.99;99.25;52578.53;5057773;28;20080;-75
2021/10/23 00:47:41;;;;;;;;;;;;;;;-144.99;98.30;52586.69;5063291;28;19984;-74
2021/10/23 00:50:08;;;;;;;;;;;;;;;-144.99;98.56;52566.31;5067341;28;19984;-75
2021/10/23 00:53:09;;;;;;;;;;;;;;;-144.99;98.56;52566.31;5083769;28;19992;-78
2021/10/23 00:55:36;;;;;;;;;;;;;;;-144.99;100.00;52574.47;5082290;28;20384;-77
2021/10/23 00:58:02;;;;;;;;;;;;;;;-144.99;100.00;52629.50;5084603;28;20000;-75
2021/10/23 01:01:27;;;;;;;;;;;;;;;-144.99;100.00;61100.13;5087085;28;19991;-75
2021/10/23 01:03:53;;;;;;;;;;;;;;;-144.99;98.94;52574.47;5069185;28;20407;-76
2021/10/23 01:06:20;;;;;;;;;;;;;;;-144.99;99.38;52545.94;5079191;28;19992;-77
2021/10/23 01:08:48;;;;;;;;;;;;;;;-144.99;98.85;52594.84;5086982;28;20003;-75
2021/10/23 01:12:14;;;;;;;;;;;;;;;-144.99;100.00;61100.13;5078192;28;20045;-75
2021/10/23 01:14:41;;;;;;;;;;;;;;;-144.99;97.83;52590.78;5048917;28;19981;-73
2021/10/23 01:17:08;;;;;;;;;;;;;;;-144.99;99.10;52568.34;5064939;28;20385;-76
2021/10/23 01:19:34;;;;;;;;;;;;;;;-144.99;99.73;52578.53;5076480;28;19997;-74
2021/10/23 01:22:02;;;;;;;;;;;;;;;-144.99;99.39;52578.53;5065886;28;19984;-74
2021/10/23 01:24:29;;;;;;;;;;;;;;;-144.99;99.11;52603.00;5065467;28;20405;-72
2021/10/23 01:26:56;;;;;;;;;;;;;;;-144.99;99.38;52558.16;5064448;28;20001;-74
2021/10/23 01:29:23;;;;;;;;;;;;;;;-144.99;98.44;52598.94;5065476;28;20099;-74
2021/10/23 01:31:50;;;;;;;;;;;;;;;-144.99;98.28;52558.16;5085435;28;20279;-75
2021/10/23 01:34:18;;;;;;;;;;;;;;;-144.99;98.20;52576.50;5085727;28;19980;-77
2021/10/23 01:36:45;;;;;;;;;;;;;;;-144.99;98.66;52566.31;5073191;28;20422;-77
2021/10/23 01:39:13;;;;;;;;;;;;;;;-144.99;99.33;52611.16;5086330;28;20501;-76
2021/10/23 01:41:40;;;;;;;;;;;;;;;-144.99;98.72;52590.78;5048802;28;19965;-77
2021/10/23 01:44:24;;;;;;;;;;;;;;;-144.99;98.72;52590.78;5050250;28;20039;-77
2021/10/23 01:46:50;;;;;;;;;;;;;;;-144.99;98.14;52570.38;5073265;28;20223;-74
2021/10/23 01:49:16;;;;;;;;;;;;;;;-144.99;98.77;52598.94;5078207;28;20004;-77
2021/10/23 01:51:43;;;;;;;;;;;;;;;-144.99;97.92;52558.16;5071867;28;19984;-76
2021/10/23 01:54:10;;;;;;;;;;;;;;;-144.99;98.25;52554.09;5085327;28;20457;-77
2021/10/23 01:56:39;;;;;;;;;;;;;;;-144.99;99.02;52586.69;5084836;28;20466;-78
2021/10/23 01:59:06;;;;;;;;;;;;;;;-144.99;98.73;52617.28;5075195;28;19996;-76
2021/10/23 02:01:32;;;;;;;;;;;;;;;-144.99;98.40;52619.31;5066839;28;19977;-76
2021/10/23 02:03:58;;;;;;;;;;;;;;;-144.99;98.09;52554.09;5065988;28;19988;-76
2021/10/23 02:06:25;;;;;;;;;;;;;;;-144.99;97.78;52556.13;5084671;28;20007;-76
2021/10/23 02:08:51;;;;;;;;;;;;;;;-144.99;97.79;52594.84;5074066;28;19993;-81
2021/10/23 02:11:18;;;;;;;;;;;;;;;-144.99;97.36;52541.84;5062922;28;19977;-76
2021/10/23 02:14:44;;;;;;;;;;;;;;;-144.99;100.00;61100.13;5066131;28;20517;-78
2021/10/23 02:17:10;;;;;;;;;;;;;;;-144.99;97.01;52594.84;5058473;28;20067;-77
2021/10/23 02:19:37;;;;;;;;;;;;;;;-144.99;96.86;52519.44;5065683;28;20461;-78
2021/10/23 02:22:03;;;;;;;;;;;;;;;-144.99;96.61;52576.50;5065517;28;19988;-76
2021/10/23 02:24:30;;;;;;;;;;;;;;;-144.99;96.23;52590.78;5073600;28;19984;-76
2021/10/23 02:27:08;;;;;;;;;;;;;;;-144.99;96.23;52590.78;5069381;28;20003;-77
2021/10/23 02:29:35;;;;;;;;;;;;;;;-144.99;95.78;52578.53;5076201;28;19996;-75
2021/10/23 02:32:02;;;;;;;;;;;;;;;-144.99;96.60;52574.47;5089528;28;19981;-76
2021/10/23 02:34:29;;;;;;;;;;;;;;;-144.99;96.39;52566.31;5083161;28;19977;-77
2021/10/23 02:36:55;;;;;;;;;;;;;;;-144.99;95.94;52590.78;5073620;28;19984;-79
2021/10/23 02:39:22;;;;;;;;;;;;;;;-144.99;95.62;52533.69;5089807;28;20004;-77
2021/10/23 02:41:48;;;;;;;;;;;;;;;-144.99;94.76;52558.16;5085029;28;19988;-77
2021/10/23 02:44:14;;;;;;;;;;;;;;;-144.99;94.41;52566.31;5059439;28;20189;-76
2021/10/23 02:46:41;;;;;;;;;;;;;;;-144.99;93.42;52537.78;5062376;28;20395;-77
2021/10/23 02:49:09;;;;;;;;;;;;;;;-144.99;93.22;52529.63;5080162;28;20000;-77
2021/10/23 02:51:36;;;;;;;;;;;;;;;-144.99;92.80;52623.38;5101133;22;20203;-75
2021/10/23 02:54:02;;;;;;;;;;;;;;;-144.99;90.68;52517.41;5095034;28;19973;-76
2021/10/23 02:56:28;;;;;;;;;;;;;;;-144.99;89.62;52578.53;5112056;28;20504;-75
2021/10/23 02:58:55;;;;;;;;;;;;;;;-144.99;88.88;52545.94;5114478;28;20003;-75
2021/10/23 03:01:21;;;;;;;;;;;;;;;-144.99;88.50;52592.81;5107198;28;19997;-75
2021/10/23 03:03:48;;;;;;;;;;;;;;;-144.99;87.89;52533.69;5093702;28;19988;-76
2021/10/23 03:06:18;;;;;;;;;;;;;;;-144.99;87.38;52533.69;5097177;28;19991;-75
2021/10/23 03:08:44;;;;;;;;;;;;;;;-144.99;87.13;52550.00;5115207;28;19980;-75
2021/10/23 03:11:10;;;;;;;;;;;;;;;-144.99;88.01;52594.84;5105394;28;19988;-75
2021/10/23 03:13:37;;;;;;;;;;;;;;;-144.99;88.18;52572.44;5083985;28;20007;-73
2021/10/23 03:16:03;;;;;;;;;;;;;;;-144.99;89.12;52545.94;5105175;28;19965;-73
2021/10/23 03:18:29;;;;;;;;;;;;;;;-144.99;90.13;52586.69;5107234;28;19980;-74
2021/10/23 03:20:56;;;;;;;;;;;;;;;-144.99;90.30;52586.69;5110753;28;20008;-75
2021/10/23 03:23:23;;;;;;;;;;;;;;;-144.99;90.44;52562.25;5114103;28;19986;-74
2021/10/23 03:25:50;;;;;;;;;;;;;;;-144.99;91.86;52582.63;5116960;28;19980;-73
2021/10/23 03:28:16;;;;;;;;;;;;;;;-144.99;91.99;52550.00;5115711;28;19996;-74
2021/10/23 03:30:42;;;;;;;;;;;;;;;-144.99;91.89;52572.44;5116472;28;19980;-74
2021/10/23 03:33:09;;;;;;;;;;;;;;;-144.99;92.32;52580.59;5116236;28;19980;-74
2021/10/23 03:35:35;;;;;;;;;;;;;;;-144.99;92.02;52570.38;5095866;28;19981;-73
2021/10/23 03:38:02;;;;;;;;;;;;;;;-144.99;92.58;52582.63;5095460;28;19988;-73
2021/10/23 03:40:30;;;;;;;;;;;;;;;-144.99;92.59;52576.50;5096527;28;20080;-74
2021/10/23 03:42:56;;;;;;;;;;;;;;;-144.99;92.80;52574.47;5087114;28;19977;-73
2021/10/23 03:45:23;;;;;;;;;;;;;;;-144.99;92.45;52578.53;5087024;28;19972;-73
2021/10/23 03:47:49;;;;;;;;;;;;;;;-144.99;91.93;52554.09;5081785;28;20502;-74
2021/10/23 03:50:15;;;;;;;;;;;;;;;-144.99;91.21;52558.16;5095839;28;20241;-73
2021/10/23 03:52:42;;;;;;;;;;;;;;;-144.99;90.75;52578.53;5110703;28;20002;-73
2021/10/23 03:55:10;;;;;;;;;;;;;;;-144.99;90.86;52537.78;5104902;28;19988;-73
2021/10/23 03:57:37;;;;;;;;;;;;;;;-144.99;91.02;52531.66;5090051;28;20073;-72
2021/10/23 04:00:04;;;;;;;;;;;;;;;-144.99;90.89;52539.81;5112380;28;20480;-74
2021/10/23 04:02:31;;;;;;;;;;;;;;;-144.99;90.72;52566.31;5097219;28;20354;-74
2021/10/23 04:04:57;;;;;;;;;;;;;;;-144.99;90.84;52541.84;5093244;28;19984;-74
2021/10/23 04:07:23;;;;;;;;;;;;;;;-144.99;90.75;52554.09;5094062;28;20396;-75
2021/10/23 04:09:50;;;;;;;;;;;;;;;-144.99;90.82;52566.31;5103590;28;20603;-75
2021/10/23 04:12:16;;;;;;;;;;;;;;;-144.99;90.98;52562.25;5118648;28;20007;-74
2021/10/23 04:14:43;;;;;;;;;;;;;;;-144.99;91.32;52537.78;5078396;28;19980;-73
2021/10/23 04:17:10;;;;;;;;;;;;;;;-144.99;91.33;52570.38;5083654;28;19977;-74
2021/10/23 04:19:36;;;;;;;;;;;;;;;-144.99;91.62;52560.19;5081031;28;19988;-75
2021/10/23 04:22:03;;;;;;;;;;;;;;;-144.99;92.33;52547.97;5092848;28;19989;-75
2021/10/23 04:24:29;;;;;;;;;;;;;;;-144.99;92.26;52552.03;5101156;28;19988;-74
2021/10/23 04:26:55;;;;;;;;;;;;;;;-144.99;92.45;52539.81;5112964;28;20593;-74
2021/10/23 04:29:22;;;;;;;;;;;;;;;-144.99;93.49;52582.63;5114204;28;19980;-74
2021/10/23 04:31:50;;;;;;;;;;;;;;;-144.99;94.29;52594.84;5114133;28;20022;-73
2021/10/23 04:34:16;;;;;;;;;;;;;;;-144.99;94.55;52552.03;5109216;28;19988;-73
2021/10/23 04:36:43;;;;;;;;;;;;;;;-144.99;94.72;52568.34;5093754;28;19988;-73
2021/10/23 04:39:10;;;;;;;;;;;;;;;-144.99;94.58;52611.16;5104124;28;19981;-73
2021/10/23 04:41:36;;;;;;;;;;;;;;;-144.99;94.65;52558.16;5089872;28;19996;-72
2021/10/23 04:44:03;;;;;;;;;;;;;;;-144.99;94.49;52552.03;5085656;28;19970;-72
2021/10/23 04:46:29;;;;;;;;;;;;;;;-144.99;94.67;52513.31;5078740;28;19980;-73
2021/10/23 04:48:57;;;;;;;;;;;;;;;-144.99;95.90;52564.28;5098814;28;19961;-72
2021/10/23 04:51:23;;;;;;;;;;;;;;;-144.99;96.22;52562.25;5111095;28;20007;-73
2021/10/23 04:53:50;;;;;;;;;;;;;;;-144.99;96.96;52564.28;5109761;28;19990;-73
2021/10/23 04:56:16;;;;;;;;;;;;;;;-144.99;97.22;52586.69;5109346;28;20042;-73
2021/10/23 04:58:43;;;;;;;;;;;;;;;-144.99;96.96;52574.47;5104507;28;19984;-72
2021/10/23 05:01:09;;;;;;;;;;;;;;;-144.99;97.02;52533.69;5090739;28;19997;-72
2021/10/23 05:03:35;;;;;;;;;;;;;;;-144.99;97.25;52558.16;5091224;28;19989;-71
2021/10/23 05:06:03;;;;;;;;;;;;;;;-144.99;96.83;52558.16;5092032;28;19981;-74
2021/10/23 05:08:29;;;;;;;;;;;;;;;-144.99;97.21;52550.00;5092246;28;20012;-74
2021/10/23 05:10:56;;;;;;;;;;;;;;;-144.99;96.83;52578.53;5088256;28;19993;-73
2021/10/23 05:13:22;;;;;;;;;;;;;;;-144.99;96.82;52603.00;5083797;28;19977;-73
2021/10/23 05:15:49;;;;;;;;;;;;;;;-144.99;96.82;52586.69;5085962;28;20391;-73
2021/10/23 05:18:15;;;;;;;;;;;;;;;-144.99;97.48;52598.94;5086928;28;20002;-73
2021/10/23 05:20:42;;;;;;;;;;;;;;;-144.99;98.06;52566.31;5090372;28;19984;-72
2021/10/23 05:23:09;;;;;;;;;;;;;;;-144.99;98.08;52558.16;5088777;28;20019;-73
2021/10/23 05:25:36;;;;;;;;;;;;;;;-144.99;98.47;52578.53;5079319;28;19952;-74
2021/10/23 05:28:02;;;;;;;;;;;;;;;-144.99;98.79;52598.94;5087807;28;19996;-74
2021/10/23 05:30:28;;;;;;;;;;;;;;;-144.99;99.85;52554.09;5089461;28;20236;-74
2021/10/23 05:32:55;;;;;;;;;;;;;;;-144.99;100.00;52562.25;5089574;28;20370;-73
2021/10/23 05:35:21;;;;;;;;;;;;;;;-144.99;100.00;52590.78;5095914;28;20294;-74
2021/10/23 05:37:48;;;;;;;;;;;;;;;-144.99;100.00;52582.63;5111433;28;20253;-74
2021/10/23 05:40:16;;;;;;;;;;;;;;;-144.99;100.00;52594.84;5111980;28;19980;-75
2021/10/23 05:42:42;;;;;;;;;;;;;;;-144.99;100.00;52570.38;5102646;28;20020;-74
2021/10/23 05:45:09;;;;;;;;;;;;;;;-144.99;100.00;52586.69;5081882;28;19996;-74
2021/10/23 05:47:35;;;;;;;;;;;;;;;-144.99;100.00;52564.28;5086528;28;20505;-74
2021/10/23 05:50:01;;;;;;;;;;;;;;;-144.99;100.00;52574.47;5107067;28;20491;-74
2021/10/23 05:52:28;;;;;;;;;;;;;;;-144.99;100.00;52558.16;5110558;28;20003;-74
2021/10/23 05:54:54;;;;;;;;;;;;;;;-144.99;100.00;52558.16;5111246;28;19991;-75
2021/10/23 05:57:22;;;;;;;;;;;;;;;-144.99;100.00;52570.38;5112543;28;20007;-74
2021/10/23 05:59:49;;;;;;;;;;;;;;;-144.99;100.00;52582.63;5106846;28;19976;-74
2021/10/23 06:02:25;;;;;;;;;;;;;;;-144.99;100.00;52562.25;5097979;28;19992;-74
2021/10/23 06:04:52;;;;;;;;;;;;;;;-144.99;100.00;52562.25;5091793;28;19990;-75
2021/10/23 06:07:18;;;;;;;;;;;;;;;-144.99;100.00;52554.09;5104323;28;19996;-73
2021/10/23 06:09:45;;;;;;;;;;;;;;;-144.99;100.00;52578.53;5111249;28;19999;-74
2021/10/23 06:12:11;;;;;;;;;;;;;;;-144.99;100.00;52570.38;5093856;28;20467;-74
2021/10/23 06:14:39;;;;;;;;;;;;;;;-144.99;100.00;52545.94;5093922;28;20438;-74
2021/10/23 06:17:05;;;;;;;;;;;;;;;-144.99;100.00;52590.78;5080923;28;19973;-74
2021/10/23 06:19:32;;;;;;;;;;;;;;;-144.99;100.00;52554.09;5112355;28;20006;-74
2021/10/23 06:21:58;;;;;;;;;;;;;;;-144.99;100.00;52521.47;5093311;28;20560;-74
2021/10/23 06:24:25;;;;;;;;;;;;;;;-144.99;100.00;52560.19;5100850;28;20051;-75
2021/10/23 06:26:51;;;;;;;;;;;;;;;-144.99;99.84;52554.09;5117432;28;19984;-75
2021/10/23 06:29:17;;;;;;;;;;;;;;;-144.99;99.39;52562.25;5114246;28;19984;-75
2021/10/23 06:31:45;;;;;;;;;;;;;;;-144.99;99.05;52588.75;5114130;28;19999;-75
2021/10/23 06:34:12;;;;;;;;;;;;;;;-144.99;99.24;52558.16;5114406;28;20048;-75
2021/10/23 06:36:38;;;;;;;;;;;;;;;-144.99;99.00;52588.75;5098193;28;20058;-75
2021/10/23 06:39:04;;;;;;;;;;;;;;;-144.99;98.71;52552.03;5101893;28;20008;-75
2021/10/23 06:41:31;;;;;;;;;;;;;;;-144.99;97.90;52537.78;5101525;28;19998;-75
2021/10/23 06:43:57;;;;;;;;;;;;;;;-144.99;97.87;52558.16;5103140;28;20040;-75
2021/10/23 06:46:24;;;;;;;;;;;;;;;-144.99;98.31;52541.84;5098431;28;19999;-75
2021/10/23 06:48:52;;;;;;;;;;;;;;;-144.99;98.46;52556.13;5102085;28;19993;-75
2021/10/23 06:51:18;;;;;;;;;;;;;;;-144.99;99.32;52560.19;5104302;28;19988;-74
2021/10/23 06:53:44;;;;;;;;;;;;;;;-144.99;99.05;52531.66;5107003;28;19975;-75
2021/10/23 06:56:11;;;;;;;;;;;;;;;-144.99;99.64;52586.69;5107122;28;19980;-74
2021/10/23 06:58:37;;;;;;;;;;;;;;;-144.99;99.65;52574.47;5103582;28;19981;-75
2021/10/23 07:01:04;;;;;;;;;;;;;;;-144.99;99.67;52537.78;5102768;28;20000;-73
2021/10/23 07:03:30;;;;;;;;;;;;;;;-144.99;98.93;52486.81;5088544;28;19991;-73
2021/10/23 07:05:58;;;;;;;;;;;;;;;-144.99;98.24;52550.00;5090455;28;19992;-72
2021/10/23 07:08:24;;;;;;;;;;;;;;;-144.99;98.72;52529.63;5090642;28;19996;-72
2021/10/23 07:10:51;;;;;;;;;;;;;;;-144.99;99.66;52558.16;5081314;28;19997;-72
2021/10/23 07:13:17;;;;;;;;;;;;;;;-144.99;99.83;52505.16;5080811;28;20393;-72
2021/10/23 07:15:44;;;;;;;;;;;;;;;-144.99;100.00;52562.25;5084303;28;19980;-74
2021/10/23 07:18:10;;;;;;;;;;;;;;;-144.99;100.00;52539.81;5090092;28;19984;-73
2021/10/23 07:20:36;;;;;;;;;;;;;;;-144.99;99.46;52533.69;5095334;28;19984;-73
2021/10/23 07:23:04;;;;;;;;;;;;;;;-144.99;98.77;52545.94;5090080;28;20019;-73
2021/10/23 07:25:31;;;;;;;;;;;;;;;-144.99;97.83;52517.41;5091635;28;20331;-73
2021/10/23 07:27:57;;;;;;;;;;;;;;;-144.99;98.47;52509.25;5087865;28;20032;-74
2021/10/23 07:30:23;;;;;;;;;;;;;;;-144.99;96.60;52521.47;5089873;28;20451;-73
2021/10/23 07:32:50;;;;;;;;;;;;;;;-144.99;95.21;52480.72;5085163;28;20464;-74
2021/10/23 07:35:17;;;;;;;;;;;;;;;-144.99;94.07;52521.47;5082702;28;19981;-74
2021/10/23 07:37:43;;;;;;;;;;;;;;;-144.99;93.52;52505.16;5090203;28;19980;-75
2021/10/23 07:40:12;;;;;;;;;;;;;;;-144.99;94.31;52521.47;5106468;28;19987;-75
2021/10/23 07:42:39;;;;;;;;;;;;;;;-144.99;93.38;52533.69;5080678;28;19996;-75
2021/10/23 07:45:06;;;;;;;;;;;;;;;-144.99;93.13;52533.69;5087087;28;19977;-74
2021/10/23 07:47:32;;;;;;;;;;;;;;;-144.99;92.65;52550.00;5088869;28;20454;-74
2021/10/23 07:49:58;;;;;;;;;;;;;;;-144.99;91.81;52533.69;5091146;28;20285;-74
2021/10/23 07:52:25;;;;;;;;;;;;;;;-144.99;91.95;52525.56;5095576;28;19996;-75
2021/10/23 07:54:51;;;;;;;;;;;;;;;-144.99;92.21;52509.25;5091274;28;20455;-75
2021/10/23 07:57:19;;;;;;;;;;;;;;;-144.99;92.01;52521.47;5091670;28;19976;-75
2021/10/23 07:59:45;;;;;;;;;;;;;;;-144.99;92.94;52505.16;5088674;28;19977;-75
2021/10/23 08:02:15;;;;;;;;;;;;;;;-144.99;92.63;52545.94;4502487;28;10000759;-74
2021/10/23 08:04:41;;;;;;;;;;;;;;;-144.99;92.86;52545.94;5071193;28;20068;-75
2021/10/23 08:07:07;;;;;;;;;;;;;;;-144.99;92.19;52509.25;5072544;28;20437;-75
2021/10/23 08:09:35;;;;;;;;;;;;;;;-144.99;91.71;52576.50;5080986;28;20004;-74
2021/10/23 08:12:01;;;;;;;;;;;;;;;-144.99;91.35;52533.69;5085633;28;19997;-75
2021/10/23 08:14:29;;;;;;;;;;;;;;;-144.99;92.37;52533.69;5068216;28;19985;-75
2021/10/23 08:16:56;;;;;;;;;;;;;;;-144.99;92.69;52497.00;5071981;28;19980;-75
2021/10/23 08:19:22;;;;;;;;;;;;;;;-144.99;92.02;52468.47;5083023;28;19985;-75
2021/10/23 08:21:49;;;;;;;;;;;;;;;-144.99;90.76;52541.84;5072936;28;19997;-73
2021/10/23 08:24:15;;;;;;;;;;;;;;;-144.99;89.93;52517.41;5077440;28;19983;-74
2021/10/23 08:26:42;;;;;;;;;;;;;;;-144.99;88.81;52525.56;5077818;28;19980;-73
2021/10/23 08:29:08;;;;;;;;;;;;;;;-144.99;88.37;52521.47;5089775;28;20004;-76
2021/10/23 08:31:36;;;;;;;;;;;;;;;-144.99;88.41;52541.84;5090704;28;20001;-75
2021/10/23 08:34:03;;;;;;;;;;;;;;;-144.99;88.25;52531.66;5071091;28;19988;-74
2021/10/23 08:36:30;;;;;;;;;;;;;;;-144.99;88.91;52547.97;5083104;28;19980;-74
2021/10/23 08:38:57;;;;;;;;;;;;;;;-144.99;89.49;52501.09;5083447;28;19985;-76
2021/10/23 08:41:24;;;;;;;;;;;;;;;-144.99;89.95;52537.78;5096388;28;20004;-75
2021/10/23 08:43:50;;;;;;;;;;;;;;;-144.99;90.18;52497.00;5074938;28;20881;-75
2021/10/23 08:46:21;;;;;;;;;;;;;;;-144.99;89.79;52517.41;5068487;28;20423;-75
2021/10/23 08:48:49;;;;;;;;;;;;;;;-144.99;90.67;52560.19;5083446;28;20720;-76
2021/10/23 08:51:16;;;;;;;;;;;;;;;-144.99;90.30;52521.47;5081994;28;20012;-75
2021/10/23 08:53:42;;;;;;;;;;;;;;;-144.99;89.44;52499.06;5123784;22;20011;-83
2021/10/23 08:56:09;;;;;;;;;;;;;;;-144.99;87.93;52486.81;5102826;28;19977;-82
2021/10/23 08:58:35;;;;;;;;;;;;;;;-144.99;85.28;52507.19;5107341;28;20135;-79
2021/10/23 09:01:02;;;;;;;;;;;;;;;-144.99;82.96;52492.94;5109748;28;19971;-78
2021/10/23 09:03:28;;;;;;;;;;;;;;;-144.99;82.09;52472.56;5108805;28;19981;-81
2021/10/23 09:05:56;;;;;;;;;;;;;;;-144.99;81.65;52480.72;5109174;28;19984;-80
2021/10/23 09:08:23;;;;;;;;;;;;;;;-144.99;79.54;52476.63;5108090;28;19985;-81
2021/10/23 09:10:50;;;;;;;;;;;;;;;-144.99;79.62;52472.56;5109482;28;19986;-80
2021/10/23 09:13:26;;;;;;;;;;;;;;;-144.99;78.42;52474.59;5108396;28;20004;-80
2021/10/23 09:15:53;;;;;;;;;;;;;;;-144.99;78.30;52505.16;5108495;28;19980;-81
2021/10/23 09:18:19;;;;;;;;;;;;;;;-144.99;77.83;52454.22;5109711;28;19984;-81
2021/10/23 09:20:46;;;;;;;;;;;;;;;-144.99;77.35;52480.72;5101160;28;19965;-80
2021/10/23 09:23:18;;;;;;;;;;;;;;;-144.99;76.61;52478.66;5107141;28;20026;-84
2021/10/23 09:25:45;;;;;;;;;;;;;;;-144.99;75.70;52411.41;5108255;28;20075;-80
2021/10/23 09:28:12;;;;;;;;;;;;;;;-144.99;73.18;52435.88;5105899;28;20010;-82
2021/10/23 09:30:41;;;;;;;;;;;;;;;-144.99;70.33;52427.72;5101522;28;20276;-80
2021/10/23 09:33:08;;;;;;;;;;;;;;;-144.99;67.49;52415.47;5104549;28;20056;-83
2021/10/23 09:35:36;;;;;;;;;;;;;;;-144.99;64.78;52378.78;5105671;28;19977;-82
2021/10/23 09:38:03;;;;;;;;;;;;;;;-144.99;60.68;52358.41;5105789;28;19982;-81
2021/10/23 09:40:31;;;;;;;;;;;;;;;-144.99;61.83;52431.78;5106914;28;19968;-80
2021/10/23 09:43:08;;;;;;;;;;;;;;;-144.99;63.04;52419.56;5106419;28;19980;-80
2021/10/23 09:45:34;;;;;;;;;;;;;;;-144.99;64.00;52460.31;5096506;28;19978;-83
2021/10/23 09:48:06;;;;;;;;;;;;;;;-144.99;64.10;52482.75;5108107;28;19964;-82
2021/10/23 09:50:33;;;;;;;;;;;;;;;-144.99;66.38;52435.88;5095441;28;20003;-82
2021/10/23 09:53:03;;;;;;;;;;;;;;;-144.99;68.18;52484.78;5106704;28;19996;-80
2021/10/23 09:55:32;;;;;;;;;;;;;;;-144.99;69.64;52488.84;5101230;27;20032;-81
2021/10/23 09:58:11;;;;;;;;;;;;;;;-144.99;70.51;52503.13;5106047;28;20047;-82
2021/10/23 10:00:38;;;;;;;;;;;;;;;-144.99;71.28;52492.94;5105503;28;20033;-80
2021/10/23 10:03:05;;;;;;;;;;;;;;;-144.99;71.66;52513.31;5109609;28;19997;-79
2021/10/23 10:05:34;;;;;;;;;;;;;;;-144.99;72.64;52470.50;5107719;28;19980;-81
2021/10/23 10:08:00;;;;;;;;;;;;;;;-144.99;73.20;52490.91;5111410;28;19968;-81
2021/10/23 10:10:27;;;;;;;;;;;;;;;-144.99;74.05;52476.63;5110972;28;20000;-79
2021/10/23 10:12:54;;;;;;;;;;;;;;;-144.99;74.67;52492.94;5109947;28;19977;-77
2021/10/23 10:15:21;;;;;;;;;;;;;;;-144.99;74.94;52476.63;5106389;28;19973;-76
2021/10/23 10:17:49;;;;;;;;;;;;;;;-144.99;73.13;52472.56;5111227;28;19969;-78
2021/10/23 10:20:15;;;;;;;;;;;;;;;-144.99;70.96;52476.63;5108273;28;20553;-78
2021/10/23 10:22:50;;;;;;;;;;;;;;;-144.99;70.78;52476.63;5110834;28;20028;-79
2021/10/23 10:25:17;;;;;;;;;;;;;;;-144.99;70.60;52488.84;5110323;28;20021;-77
2021/10/23 10:27:44;;;;;;;;;;;;;;;-144.99;71.83;52468.47;5104967;28;19965;-81
2021/10/23 10:30:21;;;;;;;;;;;;;;;-144.99;72.67;52464.41;5111152;28;20053;-79
2021/10/23 10:32:48;;;;;;;;;;;;;;;-144.99;72.69;52509.25;5111426;28;20537;-81
2021/10/23 10:35:32;;;;;;;;;;;;;;;-144.99;74.58;52505.16;5108718;28;19972;-80
2021/10/23 10:43:32;;;;;;;;;;;;;;;-144.99;78.45;52541.84;5107573;28;19999;-84
2021/10/23 10:46:02;;;;;;;;;;;;;;;-144.99;80.08;52492.94;5110965;28;19945;-83
2021/10/23 10:48:37;;;;;;;;;;;;;;;-144.99;80.24;52501.09;5110851;28;20038;-83
2021/10/23 10:51:14;;;;;;;;;;;;;;;-144.99;78.78;52482.75;5109164;28;19971;-80
2021/10/23 10:53:42;;;;;;;;;;;;;;;-144.99;78.03;52480.72;5099079;28;20011;-78
2021/10/23 10:56:09;;;;;;;;;;;;;;;-144.99;77.71;52525.56;5114439;28;20055;-84
2021/10/23 10:58:42;;;;;;;;;;;;;;;-144.99;77.97;52501.09;5114946;28;20073;-83
2021/10/23 11:01:19;;;;;;;;;;;;;;;-144.99;77.14;52464.41;5113448;28;19972;-79
2021/10/23 11:03:50;;;;;;;;;;;;;;;-144.99;75.61;52386.94;5111800;28;19988;-80
2021/10/23 11:06:35;;;;;;;;;;;;;;;-144.99;70.57;52348.22;5114393;28;19976;-81
2021/10/23 11:09:20;;;;;;;;;;;;;;;-144.99;66.73;52329.88;5106602;28;19976;-82
2021/10/23 11:12:07;;;;;;;;;;;;;;;-144.99;61.93;52280.97;5111871;28;20008;-81
2021/10/23 11:14:35;;;;;;;;;;;;;;;-144.99;55.50;52309.50;5100298;28;19969;-81
2021/10/23 11:17:15;;;;;;;;;;;;;;;-144.99;54.67;52299.31;5109307;28;19976;-81
2021/10/23 11:19:42;;;;;;;;;;;;;;;-144.99;56.47;52299.31;5110494;28;19984;-84
2021/10/23 11:22:11;;;;;;;;;;;;;;;-144.99;55.58;52280.97;5115304;28;19969;-81
2021/10/23 11:24:38;;;;;;;;;;;;;;;-144.99;55.89;52331.91;5110775;28;20035;-78
2021/10/23 11:27:05;;;;;;;;;;;;;;;-144.99;56.33;52427.72;5107381;28;19979;-79
2021/10/23 11:29:31;;;;;;;;;;;;;;;-144.99;57.32;52317.66;5102106;28;19992;-80
2021/10/23 11:31:58;;;;;;;;;;;;;;;-144.99;57.48;52382.88;5097153;28;20247;-80
2021/10/23 11:34:26;;;;;;;;;;;;;;;-144.99;57.24;52352.28;5105290;28;20001;-78
2021/10/23 11:36:58;;;;;;;;;;;;;;;-144.99;57.62;52378.78;5092990;28;19980;-77
2021/10/23 11:39:25;;;;;;;;;;;;;;;-144.99;56.63;52362.50;5096780;28;20403;-76
2021/10/23 11:41:51;;;;;;;;;;;;;;;-144.99;58.11;52382.88;5099278;28;19989;-74
2021/10/23 11:44:27;;;;;;;;;;;;;;;-144.99;57.01;52338.03;5094782;28;19999;-77
2021/10/23 11:46:56;;;;;;;;;;;;;;;-144.99;56.96;52333.94;5099156;28;19976;-78
2021/10/23 11:49:32;;;;;;;;;;;;;;;-144.99;56.04;52354.34;5097660;28;19989;-82
2021/10/23 11:51:58;;;;;;;;;;;;;;;-144.99;58.02;52452.16;5098808;28;19983;-79
2021/10/23 11:54:25;;;;;;;;;;;;;;;-144.99;59.24;52435.88;5099850;28;20250;-79
2021/10/23 11:56:51;;;;;;;;;;;;;;;-144.99;60.58;52448.09;5102832;28;19984;-80
2021/10/23 11:59:23;;;;;;;;;;;;;;;-144.99;64.03;52460.31;5104764;28;20044;-77
2021/10/23 12:01:50;;;;;;;;;;;;;;;-144.99;65.90;52541.84;5103016;28;20473;-78
2021/10/23 12:04:16;;;;;;;;;;;;;;;-144.99;67.73;52517.41;5104481;28;20073;-80
2021/10/23 12:06:44;;;;;;;;;;;;;;;-144.99;68.50;52513.31;5107405;28;19976;-78
2021/10/23 12:09:18;;;;;;;;;;;;;;;-144.99;68.95;52505.16;5102950;28;20008;-79
2021/10/23 12:11:45;;;;;;;;;;;;;;;-144.99;70.44;52507.19;5103528;28;20031;-81
2021/10/23 12:14:14;;;;;;;;;;;;;;;-144.99;71.96;52521.47;5106038;28;19988;-82
2021/10/23 12:16:42;;;;;;;;;;;;;;;-144.99;73.61;52552.03;5107245;28;19981;-78
2021/10/23 12:19:16;;;;;;;;;;;;;;;-144.99;74.54;52537.78;5109049;28;19977;-82
2021/10/23 12:21:46;;;;;;;;;;;;;;;-144.99;75.15;52543.91;5109261;28;19987;-81
2021/10/23 12:24:17;;;;;;;;;;;;;;;-144.99;75.53;52501.09;5104451;28;20044;-79
2021/10/23 12:26:43;;;;;;;;;;;;;;;-144.99;75.92;52511.28;5109085;28;20380;-77
2021/10/23 12:29:10;;;;;;;;;;;;;;;-144.99;75.90;52547.97;5108262;28;20063;-84
2021/10/23 12:31:56;;;;;;;;;;;;;;;-144.99;75.62;52505.16;5102191;28;19976;-77
2021/10/23 12:34:23;;;;;;;;;;;;;;;-144.99;74.97;52488.84;5099044;28;19996;-77
2021/10/23 12:36:50;;;;;;;;;;;;;;;-144.99;74.01;52462.34;5096462;28;19987;-78
2021/10/23 12:39:17;;;;;;;;;;;;;;;-144.99;71.16;52439.94;5094025;28;19973;-77